sensor_id;sensor_type;location;lat;lon;timestamp;P1;durP1;ratioP1;P2;durP2;ratioP2
15067;SDS011;7633;60.024;18.770;2022-07-01T00:01:24;9.88;;;8.98;;
15067;SDS011;7633;60.024;18.770;2022-07-01T00:03:50;9.25;;;8.35;;
15067;SDS011;7633;60.024;18.770;2022-07-01T00:06:16;9.38;;;8.18;;
15067;SDS011;7633;60.024;18.770;2022-07-01T00:08:41;8.88;;;8.00;;
15067;SDS011;7633;60.024;18.770;2022-07-01T00:11:07;8.60;;;7.90;;
15067;SDS011;7633;60.024;18.770;2022-07-01T00:13:33;7.97;;;7.28;;
15067;SDS011;7633;60.024;18.770;2022-07-01T00:15:58;8.60;;;7.70;;
15067;SDS011;7633;60.024;18.770;2022-07-01T00:18:24;8.57;;;7.82;;
15067;SDS011;7633;60.024;18.770;2022-07-01T00:20:49;9.18;;;8.27;;
15067;SDS011;7633;60.024;18.770;2022-07-01T00:23:16;8.95;;;8.05;;
15067;SDS011;7633;60.024;18.770;2022-07-01T00:25:42;8.48;;;7.68;;
15067;SDS011;7633;60.024;18.770;2022-07-01T00:28:07;8.52;;;7.72;;
15067;SDS011;7633;60.024;18.770;2022-07-01T00:30:32;9.95;;;9.02;;
15067;SDS011;7633;60.024;18.770;2022-07-01T00:32:58;8.45;;;7.65;;
15067;SDS011;7633;60.024;18.770;2022-07-01T00:35:23;9.13;;;8.38;;
15067;SDS011;7633;60.024;18.770;2022-07-01T00:37:49;8.30;;;7.60;;
15067;SDS011;7633;60.024;18.770;2022-07-01T00:40:14;8.52;;;7.68;;
15067;SDS011;7633;60.024;18.770;2022-07-01T00:42:40;8.13;;;7.35;;
15067;SDS011;7633;60.024;18.770;2022-07-01T00:45:07;9.00;;;7.10;;
15067;SDS011;7633;60.024;18.770;2022-07-01T00:47:33;9.20;;;8.35;;
15067;SDS011;7633;60.024;18.770;2022-07-01T00:49:58;8.65;;;7.85;;
15067;SDS011;7633;60.024;18.770;2022-07-01T00:52:24;7.97;;;7.18;;
15067;SDS011;7633;60.024;18.770;2022-07-01T00:54:49;8.20;;;7.40;;
15067;SDS011;7633;60.024;18.770;2022-07-01T00:57:15;10.63;;;8.27;;
15067;SDS011;7633;60.024;18.770;2022-07-01T00:59:40;8.80;;;8.00;;
15067;SDS011;7633;60.024;18.770;2022-07-01T01:02:06;8.75;;;7.95;;
15067;SDS011;7633;60.024;18.770;2022-07-01T01:04:32;9.38;;;7.90;;
15067;SDS011;7633;60.024;18.770;2022-07-01T01:06:57;8.77;;;7.93;;
15067;SDS011;7633;60.024;18.770;2022-07-01T01:09:23;10.23;;;9.00;;
15067;SDS011;7633;60.024;18.770;2022-07-01T01:11:49;9.82;;;8.82;;
15067;SDS011;7633;60.024;18.770;2022-07-01T01:14:15;8.88;;;8.05;;
15067;SDS011;7633;60.024;18.770;2022-07-01T01:16:40;9.35;;;8.48;;
15067;SDS011;7633;60.024;18.770;2022-07-01T01:19:06;9.30;;;8.55;;
15067;SDS011;7633;60.024;18.770;2022-07-01T01:21:32;10.38;;;9.48;;
15067;SDS011;7633;60.024;18.770;2022-07-01T01:23:57;10.10;;;9.23;;
15067;SDS011;7633;60.024;18.770;2022-07-01T01:26:23;9.55;;;8.75;;
15067;SDS011;7633;60.024;18.770;2022-07-01T01:28:50;10.10;;;9.20;;
15067;SDS011;7633;60.024;18.770;2022-07-01T01:31:16;10.40;;;9.50;;
15067;SDS011;7633;60.024;18.770;2022-07-01T01:33:42;11.10;;;10.05;;
15067;SDS011;7633;60.024;18.770;2022-07-01T01:36:07;9.32;;;8.48;;
15067;SDS011;7633;60.024;18.770;2022-07-01T01:38:34;9.18;;;8.35;;
15067;SDS011;7633;60.024;18.770;2022-07-01T01:41:00;10.95;;;10.13;;
15067;SDS011;7633;60.024;18.770;2022-07-01T01:43:25;10.43;;;9.40;;
15067;SDS011;7633;60.024;18.770;2022-07-01T01:45:51;10.95;;;9.82;;
15067;SDS011;7633;60.024;18.770;2022-07-01T01:48:16;10.27;;;9.38;;
15067;SDS011;7633;60.024;18.770;2022-07-01T01:50:42;9.20;;;8.40;;
15067;SDS011;7633;60.024;18.770;2022-07-01T01:53:07;9.65;;;8.75;;
15067;SDS011;7633;60.024;18.770;2022-07-01T01:55:32;12.40;;;11.40;;
15067;SDS011;7633;60.024;18.770;2022-07-01T01:57:58;9.68;;;8.63;;
15067;SDS011;7633;60.024;18.770;2022-07-01T02:00:23;9.98;;;9.02;;
15067;SDS011;7633;60.024;18.770;2022-07-01T02:02:49;10.55;;;9.60;;
15067;SDS011;7633;60.024;18.770;2022-07-01T02:05:14;11.85;;;9.82;;
15067;SDS011;7633;60.024;18.770;2022-07-01T02:07:40;8.40;;;7.65;;
15067;SDS011;7633;60.024;18.770;2022-07-01T02:10:06;8.18;;;7.40;;
15067;SDS011;7633;60.024;18.770;2022-07-01T02:12:32;9.50;;;8.70;;
15067;SDS011;7633;60.024;18.770;2022-07-01T02:14:57;9.68;;;8.75;;
15067;SDS011;7633;60.024;18.770;2022-07-01T02:17:23;9.38;;;8.07;;
15067;SDS011;7633;60.024;18.770;2022-07-01T02:19:49;8.93;;;8.10;;
15067;SDS011;7633;60.024;18.770;2022-07-01T02:22:15;11.00;;;9.90;;
15067;SDS011;7633;60.024;18.770;2022-07-01T02:24:40;8.25;;;7.45;;
15067;SDS011;7633;60.024;18.770;2022-07-01T02:27:07;9.90;;;8.65;;
15067;SDS011;7633;60.024;18.770;2022-07-01T02:29:32;8.15;;;7.38;;
15067;SDS011;7633;60.024;18.770;2022-07-01T02:31:58;10.10;;;8.80;;
15067;SDS011;7633;60.024;18.770;2022-07-01T02:34:23;7.85;;;7.15;;
15067;SDS011;7633;60.024;18.770;2022-07-01T02:36:49;7.53;;;6.90;;
15067;SDS011;7633;60.024;18.770;2022-07-01T02:39:14;9.90;;;9.00;;
15067;SDS011;7633;60.024;18.770;2022-07-01T02:41:40;9.40;;;8.60;;
15067;SDS011;7633;60.024;18.770;2022-07-01T02:44:24;9.65;;;8.85;;
15067;SDS011;7633;60.024;18.770;2022-07-01T02:46:49;7.40;;;6.80;;
15067;SDS011;7633;60.024;18.770;2022-07-01T02:49:15;8.80;;;7.47;;
15067;SDS011;7633;60.024;18.770;2022-07-01T02:51:40;8.23;;;7.63;;
15067;SDS011;7633;60.024;18.770;2022-07-01T02:54:05;8.60;;;7.80;;
15067;SDS011;7633;60.024;18.770;2022-07-01T02:56:31;9.45;;;8.40;;
15067;SDS011;7633;60.024;18.770;2022-07-01T02:58:56;8.25;;;7.55;;
15067;SDS011;7633;60.024;18.770;2022-07-01T03:01:21;11.60;;;9.88;;
15067;SDS011;7633;60.024;18.770;2022-07-01T03:03:53;9.07;;;8.20;;
15067;SDS011;7633;60.024;18.770;2022-07-01T03:06:19;8.20;;;7.20;;
15067;SDS011;7633;60.024;18.770;2022-07-01T03:08:45;9.15;;;8.30;;
15067;SDS011;7633;60.024;18.770;2022-07-01T03:11:10;10.45;;;8.25;;
15067;SDS011;7633;60.024;18.770;2022-07-01T03:13:36;9.77;;;8.90;;
15067;SDS011;7633;60.024;18.770;2022-07-01T03:16:01;9.18;;;8.43;;
15067;SDS011;7633;60.024;18.770;2022-07-01T03:18:27;10.93;;;9.88;;
15067;SDS011;7633;60.024;18.770;2022-07-01T03:20:52;11.07;;;10.07;;
15067;SDS011;7633;60.024;18.770;2022-07-01T03:23:17;10.88;;;9.95;;
15067;SDS011;7633;60.024;18.770;2022-07-01T03:25:43;9.88;;;9.15;;
15067;SDS011;7633;60.024;18.770;2022-07-01T03:28:08;10.32;;;9.40;;
15067;SDS011;7633;60.024;18.770;2022-07-01T03:30:33;9.68;;;7.97;;
15067;SDS011;7633;60.024;18.770;2022-07-01T03:32:59;11.40;;;10.30;;
15067;SDS011;7633;60.024;18.770;2022-07-01T03:35:24;10.40;;;9.40;;
15067;SDS011;7633;60.024;18.770;2022-07-01T03:38:04;10.60;;;9.70;;
15067;SDS011;7633;60.024;18.770;2022-07-01T03:40:33;11.68;;;10.48;;
15067;SDS011;7633;60.024;18.770;2022-07-01T03:42:59;9.90;;;9.00;;
15067;SDS011;7633;60.024;18.770;2022-07-01T03:45:24;8.52;;;7.82;;
15067;SDS011;7633;60.024;18.770;2022-07-01T03:47:50;9.82;;;8.80;;
15067;SDS011;7633;60.024;18.770;2022-07-01T03:50:16;9.10;;;8.20;;
15067;SDS011;7633;60.024;18.770;2022-07-01T03:52:42;9.38;;;8.45;;
15067;SDS011;7633;60.024;18.770;2022-07-01T03:55:10;10.18;;;9.32;;
15067;SDS011;7633;60.024;18.770;2022-07-01T03:57:36;10.50;;;9.63;;
15067;SDS011;7633;60.024;18.770;2022-07-01T04:00:01;10.20;;;9.40;;
15067;SDS011;7633;60.024;18.770;2022-07-01T04:02:26;10.15;;;9.20;;
15067;SDS011;7633;60.024;18.770;2022-07-01T04:04:52;10.70;;;9.70;;
15067;SDS011;7633;60.024;18.770;2022-07-01T04:07:20;10.65;;;9.73;;
15067;SDS011;7633;60.024;18.770;2022-07-01T04:09:46;9.27;;;8.48;;
15067;SDS011;7633;60.024;18.770;2022-07-01T04:12:11;10.35;;;9.35;;
15067;SDS011;7633;60.024;18.770;2022-07-01T04:14:37;9.70;;;8.63;;
15067;SDS011;7633;60.024;18.770;2022-07-01T04:17:03;10.43;;;9.50;;
15067;SDS011;7633;60.024;18.770;2022-07-01T04:19:28;9.20;;;8.32;;
15067;SDS011;7633;60.024;18.770;2022-07-01T04:21:54;8.90;;;8.10;;
15067;SDS011;7633;60.024;18.770;2022-07-01T04:24:38;10.38;;;8.73;;
15067;SDS011;7633;60.024;18.770;2022-07-01T04:27:03;9.13;;;8.35;;
15067;SDS011;7633;60.024;18.770;2022-07-01T04:29:29;9.50;;;8.65;;
15067;SDS011;7633;60.024;18.770;2022-07-01T04:31:54;9.48;;;8.55;;
15067;SDS011;7633;60.024;18.770;2022-07-01T04:34:20;10.85;;;9.95;;
15067;SDS011;7633;60.024;18.770;2022-07-01T04:36:45;11.93;;;10.73;;
15067;SDS011;7633;60.024;18.770;2022-07-01T04:39:11;11.30;;;10.35;;
15067;SDS011;7633;60.024;18.770;2022-07-01T04:41:36;10.75;;;9.75;;
15067;SDS011;7633;60.024;18.770;2022-07-01T04:44:20;11.27;;;10.15;;
15067;SDS011;7633;60.024;18.770;2022-07-01T04:46:45;10.70;;;9.70;;
15067;SDS011;7633;60.024;18.770;2022-07-01T04:49:11;10.43;;;9.48;;
15067;SDS011;7633;60.024;18.770;2022-07-01T04:51:36;11.60;;;10.45;;
15067;SDS011;7633;60.024;18.770;2022-07-01T04:54:02;11.35;;;10.25;;
15067;SDS011;7633;60.024;18.770;2022-07-01T04:56:27;11.30;;;10.25;;
15067;SDS011;7633;60.024;18.770;2022-07-01T04:58:54;11.85;;;10.75;;
15067;SDS011;7633;60.024;18.770;2022-07-01T05:01:19;12.27;;;10.93;;
15067;SDS011;7633;60.024;18.770;2022-07-01T05:03:45;11.55;;;10.45;;
15067;SDS011;7633;60.024;18.770;2022-07-01T05:06:10;11.82;;;10.68;;
15067;SDS011;7633;60.024;18.770;2022-07-01T05:08:35;12.15;;;10.95;;
15067;SDS011;7633;60.024;18.770;2022-07-01T05:11:01;13.35;;;12.15;;
15067;SDS011;7633;60.024;18.770;2022-07-01T05:13:26;12.45;;;11.35;;
15067;SDS011;7633;60.024;18.770;2022-07-01T05:15:51;12.93;;;11.73;;
15067;SDS011;7633;60.024;18.770;2022-07-01T05:18:17;14.05;;;12.85;;
15067;SDS011;7633;60.024;18.770;2022-07-01T05:21:00;11.10;;;10.10;;
15067;SDS011;7633;60.024;18.770;2022-07-01T05:23:44;15.90;;;13.40;;
15067;SDS011;7633;60.024;18.770;2022-07-01T05:26:10;15.27;;;13.80;;
15067;SDS011;7633;60.024;18.770;2022-07-01T05:28:40;15.30;;;13.90;;
15067;SDS011;7633;60.024;18.770;2022-07-01T05:31:06;14.52;;;13.18;;
15067;SDS011;7633;60.024;18.770;2022-07-01T05:33:31;12.73;;;11.48;;
15067;SDS011;7633;60.024;18.770;2022-07-01T05:35:57;14.95;;;13.18;;
15067;SDS011;7633;60.024;18.770;2022-07-01T05:38:22;14.57;;;13.10;;
15067;SDS011;7633;60.024;18.770;2022-07-01T05:40:47;14.05;;;12.52;;
15067;SDS011;7633;60.024;18.770;2022-07-01T05:43:13;12.55;;;11.30;;
15067;SDS011;7633;60.024;18.770;2022-07-01T05:45:38;16.45;;;13.25;;
15067;SDS011;7633;60.024;18.770;2022-07-01T05:48:03;12.80;;;11.48;;
15067;SDS011;7633;60.024;18.770;2022-07-01T05:50:29;13.15;;;11.82;;
15067;SDS011;7633;60.024;18.770;2022-07-01T05:52:54;14.23;;;11.70;;
15067;SDS011;7633;60.024;18.770;2022-07-01T05:55:20;14.15;;;12.57;;
15067;SDS011;7633;60.024;18.770;2022-07-01T05:57:45;12.48;;;11.18;;
15067;SDS011;7633;60.024;18.770;2022-07-01T06:00:10;12.85;;;11.55;;
15067;SDS011;7633;60.024;18.770;2022-07-01T06:02:36;13.23;;;11.85;;
15067;SDS011;7633;60.024;18.770;2022-07-01T06:05:02;12.48;;;11.38;;
15067;SDS011;7633;60.024;18.770;2022-07-01T06:07:27;12.48;;;11.32;;
15067;SDS011;7633;60.024;18.770;2022-07-01T06:09:53;12.73;;;11.55;;
15067;SDS011;7633;60.024;18.770;2022-07-01T06:12:18;13.18;;;12.00;;
15067;SDS011;7633;60.024;18.770;2022-07-01T06:14:43;13.30;;;12.25;;
15067;SDS011;7633;60.024;18.770;2022-07-01T06:17:09;13.68;;;12.57;;
15067;SDS011;7633;60.024;18.770;2022-07-01T06:19:34;12.70;;;11.68;;
15067;SDS011;7633;60.024;18.770;2022-07-01T06:22:00;12.82;;;11.63;;
15067;SDS011;7633;60.024;18.770;2022-07-01T06:24:25;13.65;;;12.35;;
15067;SDS011;7633;60.024;18.770;2022-07-01T06:26:50;13.23;;;12.18;;
15067;SDS011;7633;60.024;18.770;2022-07-01T06:29:16;12.90;;;11.90;;
15067;SDS011;7633;60.024;18.770;2022-07-01T06:31:41;13.15;;;12.07;;
15067;SDS011;7633;60.024;18.770;2022-07-01T06:34:06;12.25;;;11.32;;
15067;SDS011;7633;60.024;18.770;2022-07-01T06:36:32;14.45;;;13.00;;
15067;SDS011;7633;60.024;18.770;2022-07-01T06:38:57;13.18;;;12.13;;
15067;SDS011;7633;60.024;18.770;2022-07-01T06:41:22;12.63;;;11.52;;
15067;SDS011;7633;60.024;18.770;2022-07-01T06:43:55;13.38;;;12.18;;
15067;SDS011;7633;60.024;18.770;2022-07-01T06:46:20;14.00;;;12.80;;
15067;SDS011;7633;60.024;18.770;2022-07-01T06:48:46;13.63;;;12.40;;
15067;SDS011;7633;60.024;18.770;2022-07-01T06:51:11;13.50;;;12.40;;
15067;SDS011;7633;60.024;18.770;2022-07-01T06:53:37;12.75;;;11.75;;
15067;SDS011;7633;60.024;18.770;2022-07-01T06:56:02;12.90;;;11.70;;
15067;SDS011;7633;60.024;18.770;2022-07-01T06:58:28;13.00;;;11.88;;
15067;SDS011;7633;60.024;18.770;2022-07-01T07:00:53;14.18;;;12.98;;
15067;SDS011;7633;60.024;18.770;2022-07-01T07:03:18;12.80;;;11.75;;
15067;SDS011;7633;60.024;18.770;2022-07-01T07:05:44;12.13;;;11.15;;
15067;SDS011;7633;60.024;18.770;2022-07-01T07:08:09;12.77;;;11.68;;
15067;SDS011;7633;60.024;18.770;2022-07-01T07:10:34;12.65;;;11.65;;
15067;SDS011;7633;60.024;18.770;2022-07-01T07:13:00;11.98;;;10.95;;
15067;SDS011;7633;60.024;18.770;2022-07-01T07:15:26;11.32;;;10.43;;
15067;SDS011;7633;60.024;18.770;2022-07-01T07:17:52;12.60;;;11.50;;
15067;SDS011;7633;60.024;18.770;2022-07-01T07:20:19;11.52;;;10.52;;
15067;SDS011;7633;60.024;18.770;2022-07-01T07:22:45;12.80;;;11.63;;
15067;SDS011;7633;60.024;18.770;2022-07-01T07:25:10;12.85;;;11.75;;
15067;SDS011;7633;60.024;18.770;2022-07-01T07:27:35;12.13;;;11.13;;
15067;SDS011;7633;60.024;18.770;2022-07-01T07:30:01;12.43;;;11.27;;
15067;SDS011;7633;60.024;18.770;2022-07-01T07:32:28;10.15;;;9.30;;
15067;SDS011;7633;60.024;18.770;2022-07-01T07:34:53;10.15;;;9.18;;
15067;SDS011;7633;60.024;18.770;2022-07-01T07:37:19;8.63;;;7.82;;
15067;SDS011;7633;60.024;18.770;2022-07-01T07:39:45;7.47;;;6.78;;
15067;SDS011;7633;60.024;18.770;2022-07-01T07:42:12;7.85;;;6.85;;
15067;SDS011;7633;60.024;18.770;2022-07-01T07:44:38;8.45;;;7.70;;
15067;SDS011;7633;60.024;18.770;2022-07-01T07:47:04;7.95;;;7.25;;
15067;SDS011;7633;60.024;18.770;2022-07-01T07:49:29;6.60;;;5.65;;
15067;SDS011;7633;60.024;18.770;2022-07-01T07:51:55;9.20;;;6.70;;
15067;SDS011;7633;60.024;18.770;2022-07-01T07:54:20;11.10;;;7.20;;
15067;SDS011;7633;60.024;18.770;2022-07-01T07:56:48;8.93;;;6.55;;
15067;SDS011;7633;60.024;18.770;2022-07-01T07:59:14;6.82;;;6.10;;
15067;SDS011;7633;60.024;18.770;2022-07-01T08:01:39;9.45;;;7.05;;
15067;SDS011;7633;60.024;18.770;2022-07-01T08:04:05;7.60;;;6.78;;
15067;SDS011;7633;60.024;18.770;2022-07-01T08:06:30;8.60;;;6.07;;
15067;SDS011;7633;60.024;18.770;2022-07-01T08:08:56;6.75;;;5.40;;
15067;SDS011;7633;60.024;18.770;2022-07-01T08:11:21;8.63;;;5.75;;
15067;SDS011;7633;60.024;18.770;2022-07-01T08:13:46;6.45;;;5.03;;
15067;SDS011;7633;60.024;18.770;2022-07-01T08:16:12;6.40;;;5.53;;
15067;SDS011;7633;60.024;18.770;2022-07-01T08:18:37;6.25;;;5.13;;
15067;SDS011;7633;60.024;18.770;2022-07-01T08:21:03;6.35;;;5.25;;
15067;SDS011;7633;60.024;18.770;2022-07-01T08:23:28;6.10;;;5.50;;
15067;SDS011;7633;60.024;18.770;2022-07-01T08:25:54;5.88;;;5.30;;
15067;SDS011;7633;60.024;18.770;2022-07-01T08:28:19;9.38;;;5.40;;
15067;SDS011;7633;60.024;18.770;2022-07-01T08:30:45;6.63;;;4.55;;
15067;SDS011;7633;60.024;18.770;2022-07-01T08:33:10;5.90;;;5.28;;
15067;SDS011;7633;60.024;18.770;2022-07-01T08:35:36;6.00;;;5.05;;
15067;SDS011;7633;60.024;18.770;2022-07-01T08:38:02;6.03;;;5.43;;
15067;SDS011;7633;60.024;18.770;2022-07-01T08:40:28;7.90;;;5.07;;
15067;SDS011;7633;60.024;18.770;2022-07-01T08:43:04;6.15;;;4.95;;
15067;SDS011;7633;60.024;18.770;2022-07-01T08:45:31;6.13;;;5.10;;
15067;SDS011;7633;60.024;18.770;2022-07-01T08:47:57;6.28;;;4.57;;
15067;SDS011;7633;60.024;18.770;2022-07-01T08:50:25;7.18;;;5.53;;
15067;SDS011;7633;60.024;18.770;2022-07-01T08:52:51;5.85;;;5.28;;
15067;SDS011;7633;60.024;18.770;2022-07-01T08:55:17;5.60;;;5.10;;
15067;SDS011;7633;60.024;18.770;2022-07-01T08:57:42;5.15;;;4.65;;
15067;SDS011;7633;60.024;18.770;2022-07-01T09:00:08;6.10;;;4.68;;
15067;SDS011;7633;60.024;18.770;2022-07-01T09:05:14;4.85;;;4.03;;
15067;SDS011;7633;60.024;18.770;2022-07-01T09:07:39;6.03;;;4.82;;
15067;SDS011;7633;60.024;18.770;2022-07-01T09:10:13;5.45;;;4.95;;
15067;SDS011;7633;60.024;18.770;2022-07-01T09:12:40;5.07;;;4.57;;
15067;SDS011;7633;60.024;18.770;2022-07-01T09:15:19;4.68;;;4.28;;
15067;SDS011;7633;60.024;18.770;2022-07-01T09:17:44;5.00;;;4.43;;
15067;SDS011;7633;60.024;18.770;2022-07-01T09:20:22;5.80;;;4.85;;
15067;SDS011;7633;60.024;18.770;2022-07-01T09:22:57;5.07;;;4.50;;
15067;SDS011;7633;60.024;18.770;2022-07-01T09:25:28;4.28;;;3.92;;
15067;SDS011;7633;60.024;18.770;2022-07-01T09:28:13;4.90;;;4.50;;
15067;SDS011;7633;60.024;18.770;2022-07-01T09:30:49;4.90;;;4.50;;
15067;SDS011;7633;60.024;18.770;2022-07-01T09:33:16;4.95;;;4.55;;
15067;SDS011;7633;60.024;18.770;2022-07-01T09:35:41;4.30;;;3.97;;
15067;SDS011;7633;60.024;18.770;2022-07-01T09:38:10;4.30;;;3.90;;
15067;SDS011;7633;60.024;18.770;2022-07-01T09:40:55;4.63;;;4.28;;
15067;SDS011;7633;60.024;18.770;2022-07-01T09:43:27;4.70;;;4.30;;
15067;SDS011;7633;60.024;18.770;2022-07-01T09:46:02;4.97;;;4.55;;
15067;SDS011;7633;60.024;18.770;2022-07-01T09:48:48;5.53;;;5.13;;
15067;SDS011;7633;60.024;18.770;2022-07-01T09:51:14;4.00;;;3.70;;
15067;SDS011;7633;60.024;18.770;2022-07-01T09:53:40;4.30;;;3.90;;
15067;SDS011;7633;60.024;18.770;2022-07-01T09:56:06;5.07;;;4.63;;
15067;SDS011;7633;60.024;18.770;2022-07-01T09:58:31;5.05;;;4.63;;
15067;SDS011;7633;60.024;18.770;2022-07-01T10:00:57;6.20;;;5.60;;
15067;SDS011;7633;60.024;18.770;2022-07-01T10:03:23;5.55;;;5.05;;
15067;SDS011;7633;60.024;18.770;2022-07-01T10:13:57;7.15;;;6.63;;
15067;SDS011;7633;60.024;18.770;2022-07-01T10:16:23;8.25;;;5.47;;
15067;SDS011;7633;60.024;18.770;2022-07-01T10:18:48;9.30;;;6.07;;
15067;SDS011;7633;60.024;18.770;2022-07-01T10:21:35;8.25;;;6.10;;
15067;SDS011;7633;60.024;18.770;2022-07-01T10:24:16;7.78;;;5.50;;
15067;SDS011;7633;60.024;18.770;2022-07-01T10:26:45;5.18;;;4.68;;
15067;SDS011;7633;60.024;18.770;2022-07-01T10:29:32;6.78;;;5.30;;
15067;SDS011;7633;60.024;18.770;2022-07-01T10:32:29;7.63;;;5.38;;
15067;SDS011;7633;60.024;18.770;2022-07-01T10:34:48;6.80;;;5.28;;
15067;SDS011;7633;60.024;18.770;2022-07-01T10:37:15;6.28;;;4.53;;
15067;SDS011;7633;60.024;18.770;2022-07-01T10:42:20;7.38;;;5.13;;
15067;SDS011;7633;60.024;18.770;2022-07-01T10:45:19;8.45;;;5.28;;
15067;SDS011;7633;60.024;18.770;2022-07-01T10:47:38;6.65;;;6.03;;
15067;SDS011;7633;60.024;18.770;2022-07-01T10:50:04;7.60;;;5.35;;
15067;SDS011;7633;60.024;18.770;2022-07-01T10:52:30;6.65;;;4.93;;
15067;SDS011;7633;60.024;18.770;2022-07-01T10:54:56;8.10;;;4.70;;
15067;SDS011;7633;60.024;18.770;2022-07-01T10:59:49;6.18;;;4.30;;
15067;SDS011;7633;60.024;18.770;2022-07-01T11:04:44;6.35;;;3.88;;
15067;SDS011;7633;60.024;18.770;2022-07-01T11:07:13;6.57;;;3.78;;
15067;SDS011;7633;60.024;18.770;2022-07-01T11:09:38;6.25;;;4.13;;
15067;SDS011;7633;60.024;18.770;2022-07-01T11:12:04;4.38;;;3.15;;
15067;SDS011;7633;60.024;18.770;2022-07-01T11:14:33;4.90;;;4.03;;
15067;SDS011;7633;60.024;18.770;2022-07-01T11:16:58;5.90;;;3.80;;
15067;SDS011;7633;60.024;18.770;2022-07-01T11:19:24;4.15;;;3.75;;
15067;SDS011;7633;60.024;18.770;2022-07-01T11:21:50;6.10;;;4.20;;
15067;SDS011;7633;60.024;18.770;2022-07-01T11:24:17;4.60;;;3.50;;
15067;SDS011;7633;60.024;18.770;2022-07-01T11:26:42;5.18;;;4.53;;
15067;SDS011;7633;60.024;18.770;2022-07-01T11:29:11;6.25;;;4.63;;
15067;SDS011;7633;60.024;18.770;2022-07-01T11:31:36;5.85;;;4.60;;
15067;SDS011;7633;60.024;18.770;2022-07-01T11:34:02;6.47;;;4.45;;
15067;SDS011;7633;60.024;18.770;2022-07-01T11:36:31;6.47;;;4.30;;
15067;SDS011;7633;60.024;18.770;2022-07-01T11:39:18;6.03;;;4.25;;
15067;SDS011;7633;60.024;18.770;2022-07-01T11:41:57;6.75;;;4.57;;
15067;SDS011;7633;60.024;18.770;2022-07-01T11:44:39;6.05;;;4.30;;
15067;SDS011;7633;60.024;18.770;2022-07-01T11:47:08;5.13;;;4.25;;
15067;SDS011;7633;60.024;18.770;2022-07-01T11:49:42;4.95;;;4.18;;
15067;SDS011;7633;60.024;18.770;2022-07-01T11:52:08;5.32;;;4.50;;
15067;SDS011;7633;60.024;18.770;2022-07-01T11:54:43;5.43;;;4.70;;
15067;SDS011;7633;60.024;18.770;2022-07-01T11:59:41;5.57;;;4.72;;
15067;SDS011;7633;60.024;18.770;2022-07-01T12:02:09;6.57;;;4.28;;
15067;SDS011;7633;60.024;18.770;2022-07-01T12:04:36;4.95;;;4.30;;
15067;SDS011;7633;60.024;18.770;2022-07-01T12:07:02;5.13;;;4.63;;
15067;SDS011;7633;60.024;18.770;2022-07-01T12:09:27;4.70;;;4.28;;
15067;SDS011;7633;60.024;18.770;2022-07-01T12:11:53;5.13;;;4.32;;
15067;SDS011;7633;60.024;18.770;2022-07-01T12:14:34;5.95;;;4.20;;
15067;SDS011;7633;60.024;18.770;2022-07-01T12:17:05;5.85;;;4.38;;
15067;SDS011;7633;60.024;18.770;2022-07-01T12:22:04;4.65;;;3.85;;
15067;SDS011;7633;60.024;18.770;2022-07-01T12:24:30;5.03;;;4.28;;
15067;SDS011;7633;60.024;18.770;2022-07-01T12:27:02;6.30;;;4.18;;
15067;SDS011;7633;60.024;18.770;2022-07-01T12:29:30;6.95;;;3.63;;
15067;SDS011;7633;60.024;18.770;2022-07-01T12:32:05;5.80;;;3.83;;
15067;SDS011;7633;60.024;18.770;2022-07-01T12:34:42;4.60;;;4.05;;
15067;SDS011;7633;60.024;18.770;2022-07-01T12:37:16;5.90;;;4.15;;
15067;SDS011;7633;60.024;18.770;2022-07-01T12:39:55;4.30;;;3.85;;
15067;SDS011;7633;60.024;18.770;2022-07-01T12:44:46;5.10;;;3.85;;
15067;SDS011;7633;60.024;18.770;2022-07-01T12:47:18;6.05;;;3.97;;
15067;SDS011;7633;60.024;18.770;2022-07-01T12:49:44;5.95;;;3.85;;
15067;SDS011;7633;60.024;18.770;2022-07-01T12:52:22;4.55;;;4.05;;
15067;SDS011;7633;60.024;18.770;2022-07-01T12:54:48;4.00;;;3.55;;
15067;SDS011;7633;60.024;18.770;2022-07-01T12:57:15;4.32;;;3.80;;
15067;SDS011;7633;60.024;18.770;2022-07-01T12:59:40;3.70;;;3.40;;
15067;SDS011;7633;60.024;18.770;2022-07-01T13:02:06;5.45;;;4.45;;
15067;SDS011;7633;60.024;18.770;2022-07-01T13:04:31;4.32;;;3.47;;
15067;SDS011;7633;60.024;18.770;2022-07-01T13:06:57;5.10;;;4.18;;
15067;SDS011;7633;60.024;18.770;2022-07-01T13:09:22;5.07;;;4.57;;
15067;SDS011;7633;60.024;18.770;2022-07-01T13:11:48;5.10;;;4.65;;
15067;SDS011;7633;60.024;18.770;2022-07-01T13:14:13;6.00;;;4.07;;
15067;SDS011;7633;60.024;18.770;2022-07-01T13:16:39;5.38;;;4.88;;
15067;SDS011;7633;60.024;18.770;2022-07-01T13:19:04;6.60;;;5.80;;
15067;SDS011;7633;60.024;18.770;2022-07-01T13:21:29;6.60;;;5.90;;
15067;SDS011;7633;60.024;18.770;2022-07-01T13:23:55;8.13;;;6.68;;
15067;SDS011;7633;60.024;18.770;2022-07-01T13:26:20;7.47;;;6.82;;
15067;SDS011;7633;60.024;18.770;2022-07-01T13:28:46;7.78;;;6.97;;
15067;SDS011;7633;60.024;18.770;2022-07-01T13:31:11;6.93;;;6.32;;
15067;SDS011;7633;60.024;18.770;2022-07-01T13:33:38;7.15;;;6.55;;
15067;SDS011;7633;60.024;18.770;2022-07-01T13:36:03;7.43;;;6.72;;
15067;SDS011;7633;60.024;18.770;2022-07-01T13:38:28;6.72;;;6.00;;
15067;SDS011;7633;60.024;18.770;2022-07-01T13:40:54;6.65;;;6.05;;
15067;SDS011;7633;60.024;18.770;2022-07-01T13:43:19;6.28;;;5.78;;
15067;SDS011;7633;60.024;18.770;2022-07-01T13:45:44;6.50;;;5.90;;
15067;SDS011;7633;60.024;18.770;2022-07-01T13:48:11;7.47;;;6.03;;
15067;SDS011;7633;60.024;18.770;2022-07-01T13:50:37;7.25;;;6.65;;
15067;SDS011;7633;60.024;18.770;2022-07-01T13:53:02;7.13;;;6.53;;
15067;SDS011;7633;60.024;18.770;2022-07-01T13:55:27;9.45;;;7.07;;
15067;SDS011;7633;60.024;18.770;2022-07-01T13:57:53;9.48;;;7.00;;
15067;SDS011;7633;60.024;18.770;2022-07-01T14:00:18;7.70;;;6.90;;
15067;SDS011;7633;60.024;18.770;2022-07-01T14:02:43;8.30;;;7.47;;
15067;SDS011;7633;60.024;18.770;2022-07-01T14:05:09;7.15;;;6.55;;
15067;SDS011;7633;60.024;18.770;2022-07-01T14:07:34;8.80;;;8.00;;
15067;SDS011;7633;60.024;18.770;2022-07-01T14:10:00;8.15;;;7.40;;
15067;SDS011;7633;60.024;18.770;2022-07-01T14:12:25;8.77;;;7.55;;
15067;SDS011;7633;60.024;18.770;2022-07-01T14:14:50;7.50;;;6.75;;
15067;SDS011;7633;60.024;18.770;2022-07-01T14:17:16;8.05;;;6.57;;
15067;SDS011;7633;60.024;18.770;2022-07-01T14:19:42;10.70;;;7.63;;
15067;SDS011;7633;60.024;18.770;2022-07-01T14:22:07;8.30;;;7.32;;
15067;SDS011;7633;60.024;18.770;2022-07-01T14:24:33;7.32;;;6.57;;
15067;SDS011;7633;60.024;18.770;2022-07-01T14:26:58;7.40;;;6.70;;
15067;SDS011;7633;60.024;18.770;2022-07-01T14:29:24;8.52;;;7.30;;
15067;SDS011;7633;60.024;18.770;2022-07-01T14:31:49;8.25;;;7.18;;
15067;SDS011;7633;60.024;18.770;2022-07-01T14:34:14;9.57;;;7.03;;
15067;SDS011;7633;60.024;18.770;2022-07-01T14:36:40;8.65;;;7.20;;
15067;SDS011;7633;60.024;18.770;2022-07-01T14:39:06;7.72;;;6.90;;
15067;SDS011;7633;60.024;18.770;2022-07-01T14:41:31;8.30;;;7.60;;
15067;SDS011;7633;60.024;18.770;2022-07-01T14:43:56;8.48;;;6.57;;
15067;SDS011;7633;60.024;18.770;2022-07-01T14:46:22;8.07;;;7.28;;
15067;SDS011;7633;60.024;18.770;2022-07-01T14:48:47;7.40;;;6.70;;
15067;SDS011;7633;60.024;18.770;2022-07-01T14:51:12;7.40;;;6.70;;
15067;SDS011;7633;60.024;18.770;2022-07-01T14:53:38;7.88;;;7.10;;
15067;SDS011;7633;60.024;18.770;2022-07-01T14:56:03;8.40;;;7.05;;
15067;SDS011;7633;60.024;18.770;2022-07-01T14:58:29;11.85;;;6.40;;
15067;SDS011;7633;60.024;18.770;2022-07-01T15:00:54;8.32;;;7.53;;
15067;SDS011;7633;60.024;18.770;2022-07-01T15:03:20;7.47;;;6.78;;
15067;SDS011;7633;60.024;18.770;2022-07-01T15:05:45;8.80;;;7.72;;